TimePDT,TemperatureF,Dew PointF,Humidity,Sea Level PressureIn,VisibilityMPH,Wind Direction,Wind SpeedMPH,Gust SpeedMPH,PrecipitationIn,Events,Conditions,WindDirDegrees,DateUTC
12:53 AM,37.9,36.0,93,30.22,10.0,Calm,Calm,-,0.00,,Clear,0,2013-11-01 07:53:00
1:53 AM,36.0,36.0,100,30.22,10.0,Calm,Calm,-,N/A,,Clear,0,2013-11-01 08:53:00
2:53 AM,33.1,32.0,96,30.24,10.0,Calm,Calm,-,N/A,,Clear,0,2013-11-01 09:53:00
3:53 AM,34.0,32.0,92,30.24,10.0,Calm,Calm,-,N/A,,Clear,0,2013-11-01 10:53:00
4:53 AM,33.1,32.0,96,30.24,10.0,Calm,Calm,-,N/A,,Clear,0,2013-11-01 11:53:00
5:53 AM,36.0,34.0,93,30.25,10.0,Calm,Calm,-,N/A,,Clear,0,2013-11-01 12:53:00
6:53 AM,32.0,30.9,96,30.26,10.0,NNW,4.6,-,N/A,,Clear,330,2013-11-01 13:53:00
7:53 AM,35.1,33.1,92,30.27,10.0,Calm,Calm,-,N/A,,Clear,0,2013-11-01 14:53:00
8:53 AM,43.0,39.0,86,30.28,10.0,Calm,Calm,-,N/A,,Clear,0,2013-11-01 15:53:00
9:53 AM,53.1,44.1,71,30.27,10.0,SE,4.6,-,N/A,,Clear,140,2013-11-01 16:53:00
10:53 AM,55.9,44.1,64,30.27,10.0,SSE,4.6,-,N/A,,Clear,160,2013-11-01 17:53:00
11:53 AM,59.0,43.0,55,30.25,10.0,SW,9.2,-,N/A,,Clear,220,2013-11-01 18:53:00
12:53 PM,63.0,41.0,45,30.21,10.0,SSW,10.4,-,N/A,,Clear,200,2013-11-01 19:53:00
1:53 PM,64.0,39.9,41,30.18,10.0,South,5.8,-,N/A,,Clear,180,2013-11-01 20:53:00
2:53 PM,64.0,39.0,40,30.16,10.0,South,3.5,-,N/A,,Clear,180,2013-11-01 21:53:00
3:53 PM,64.9,37.0,36,30.14,10.0,South,3.5,-,N/A,,Clear,170,2013-11-01 22:53:00
4:53 PM,64.0,37.0,37,30.12,10.0,SSE,3.5,-,N/A,,Clear,150,2013-11-01 23:53:00
5:53 PM,55.0,41.0,59,30.10,10.0,Calm,Calm,-,N/A,,Clear,0,2013-11-02 00:53:00
6:53 PM,52.0,39.9,63,30.08,10.0,Calm,Calm,-,N/A,,Clear,0,2013-11-02 01:53:00
7:53 PM,50.0,39.0,66,30.05,10.0,Calm,Calm,-,N/A,,Clear,0,2013-11-02 02:53:00
8:53 PM,48.0,39.9,74,30.02,10.0,Calm,Calm,-,N/A,,Clear,0,2013-11-02 03:53:00
9:53 PM,53.1,39.0,59,29.97,10.0,East,6.9,-,N/A,,Partly Cloudy,100,2013-11-02 04:53:00
10:53 PM,48.0,42.1,80,29.97,10.0,North,4.6,-,N/A,,Clear,350,2013-11-02 05:53:00
11:53 PM,48.9,42.1,77,29.93,10.0,Calm,Calm,-,N/A,,Clear,0,2013-11-02 06:53:00